createdAt,value
2023-03-22T00:02:26.391Z,9.30
2023-03-22T00:04:53.478Z,9.32
2023-03-22T00:07:20.084Z,9.33
2023-03-22T00:09:46.869Z,9.36
2023-03-22T00:12:13.527Z,9.36
2023-03-22T00:14:40.153Z,9.35
2023-03-22T00:17:06.802Z,9.35
2023-03-22T00:19:34.045Z,9.36
2023-03-22T00:22:01.247Z,9.39
2023-03-22T00:24:28.550Z,9.39
2023-03-22T00:26:55.526Z,9.38
2023-03-22T00:29:24.126Z,9.39
2023-03-22T00:31:52.067Z,9.40
2023-03-22T00:34:18.822Z,9.44
2023-03-22T00:36:45.586Z,9.43
2023-03-22T00:39:12.742Z,9.42
2023-03-22T00:41:39.429Z,9.43
2023-03-22T00:44:06.257Z,9.45
2023-03-22T00:46:33.004Z,9.40
2023-03-22T00:49:00.218Z,9.45
2023-03-22T00:51:26.981Z,9.45
2023-03-22T00:53:54.805Z,9.44
2023-03-22T00:56:23.095Z,9.45
2023-03-22T00:58:49.719Z,9.47
2023-03-22T01:01:16.388Z,9.49
2023-03-22T01:03:43.955Z,9.46
2023-03-22T01:06:11.190Z,9.46
2023-03-22T01:08:39.298Z,9.44
2023-03-22T01:11:07.564Z,9.47
2023-03-22T01:13:37.474Z,9.50
2023-03-22T01:16:08.076Z,9.50
2023-03-22T01:18:35.861Z,9.48
2023-03-22T01:21:03.003Z,9.47
2023-03-22T01:23:29.791Z,9.49
2023-03-22T01:25:56.418Z,9.47
2023-03-22T01:28:25.784Z,9.47
2023-03-22T01:30:54.318Z,9.44
2023-03-22T01:33:21.924Z,9.49
2023-03-22T01:35:48.704Z,9.46
2023-03-22T01:38:15.439Z,9.45
2023-03-22T01:40:42.429Z,9.44
2023-03-22T01:43:17.310Z,9.42
2023-03-22T01:45:49.056Z,9.44
2023-03-22T01:48:22.054Z,9.40
2023-03-22T01:50:56.248Z,9.42
2023-03-22T01:53:26.147Z,9.42
2023-03-22T01:55:55.674Z,9.43
2023-03-22T01:58:22.372Z,9.43
2023-03-22T02:00:51.665Z,9.39
2023-03-22T02:03:28.284Z,9.40
2023-03-22T02:05:55.482Z,9.38
2023-03-22T02:08:22.307Z,9.41
2023-03-22T02:10:49.060Z,9.41
2023-03-22T02:13:27.697Z,9.38
2023-03-22T02:16:15.745Z,9.40
2023-03-22T02:19:15.971Z,9.38
2023-03-22T02:22:04.330Z,9.35
2023-03-22T02:25:08.258Z,9.31
2023-03-22T02:28:08.816Z,9.32
2023-03-22T02:30:57.038Z,9.32
2023-03-22T02:33:45.440Z,9.31
2023-03-22T02:36:22.330Z,9.29
2023-03-22T02:38:48.819Z,9.25
2023-03-22T02:41:21.806Z,9.30
2023-03-22T02:44:04.872Z,9.31
2023-03-22T02:46:43.529Z,9.31
2023-03-22T02:49:12.924Z,9.31
2023-03-22T02:52:04.492Z,9.34
2023-03-22T02:54:38.630Z,9.34
2023-03-22T02:57:25.618Z,9.35
2023-03-22T02:59:53.930Z,9.33
2023-03-22T03:02:22.327Z,9.32
2023-03-22T03:04:51.360Z,9.35
2023-03-22T03:07:27.817Z,9.38
2023-03-22T03:09:54.614Z,9.34
2023-03-22T03:12:24.162Z,9.32
2023-03-22T03:14:51.019Z,9.33
2023-03-22T03:17:28.998Z,9.34
2023-03-22T03:20:19.019Z,9.33
2023-03-22T03:22:51.655Z,9.36
2023-03-22T03:25:43.278Z,9.35
2023-03-22T03:28:38.519Z,9.32
2023-03-22T03:31:16.718Z,9.33
2023-03-22T03:33:53.812Z,9.31
2023-03-22T03:36:22.880Z,9.31
2023-03-22T03:38:52.691Z,9.28
2023-03-22T03:41:24.608Z,9.28
2023-03-22T03:43:53.034Z,9.28
2023-03-22T03:46:20.993Z,9.27
2023-03-22T03:48:49.933Z,9.26
2023-03-22T03:51:16.695Z,9.31
2023-03-22T03:53:43.327Z,9.28
2023-03-22T03:56:10.470Z,9.27
2023-03-22T03:58:37.360Z,9.27
2023-03-22T04:01:04.423Z,9.24
2023-03-22T04:03:32.350Z,9.25
2023-03-22T04:05:59.993Z,9.27
2023-03-22T04:08:27.325Z,9.28
2023-03-22T04:10:54.034Z,9.25
2023-03-22T04:13:21.702Z,9.28
2023-03-22T04:15:53.046Z,9.31
2023-03-22T04:18:19.792Z,9.32
2023-03-22T04:20:49.550Z,9.33
2023-03-22T04:23:16.321Z,9.30
2023-03-22T04:25:43.696Z,9.33
2023-03-22T04:28:10.427Z,9.34
2023-03-22T04:30:37.235Z,9.33
2023-03-22T04:33:08.213Z,9.33
2023-03-22T04:35:35.436Z,9.31
2023-03-22T04:38:02.073Z,9.32
2023-03-22T04:40:31.800Z,9.33
2023-03-22T04:42:59.149Z,9.36
2023-03-22T04:45:29.269Z,9.35
2023-03-22T04:47:56.405Z,9.36
2023-03-22T04:50:23.445Z,9.36
2023-03-22T04:52:50.242Z,9.38
2023-03-22T04:55:16.951Z,9.40
2023-03-22T04:57:44.460Z,9.39
2023-03-22T05:00:11.881Z,9.38
2023-03-22T05:02:41.527Z,9.40
2023-03-22T05:05:08.426Z,9.43
2023-03-22T05:07:35.333Z,9.44
2023-03-22T05:10:02.824Z,9.41
2023-03-22T05:12:29.461Z,9.43
2023-03-22T05:14:56.049Z,9.41
2023-03-22T05:17:22.888Z,9.38
2023-03-22T05:19:49.556Z,9.39
2023-03-22T05:22:16.201Z,9.40
2023-03-22T05:24:42.797Z,9.37
2023-03-22T05:27:10.970Z,9.38
2023-03-22T05:29:37.684Z,9.35
2023-03-22T05:32:04.444Z,9.34
2023-03-22T05:34:36.203Z,9.30
2023-03-22T05:37:03.502Z,9.26
2023-03-22T05:39:30.514Z,9.25
2023-03-22T05:41:57.134Z,9.24
2023-03-22T05:44:23.900Z,9.22
2023-03-22T05:46:50.533Z,9.20
2023-03-22T05:49:17.218Z,9.18
2023-03-22T05:51:43.868Z,9.18
2023-03-22T05:54:10.614Z,9.15
2023-03-22T05:56:37.429Z,9.08
2023-03-22T05:59:05.012Z,8.99
2023-03-22T06:01:33.474Z,8.94
2023-03-22T06:04:01.027Z,8.94
2023-03-22T06:06:28.224Z,8.92
2023-03-22T06:09:01.674Z,8.85
2023-03-22T06:11:35.469Z,8.79
2023-03-22T06:14:02.067Z,8.78
2023-03-22T06:16:28.720Z,8.73
2023-03-22T06:18:55.530Z,8.70
2023-03-22T06:21:22.434Z,8.66
2023-03-22T06:23:49.073Z,8.62
2023-03-22T06:26:15.740Z,8.61
2023-03-22T06:28:42.454Z,8.59
2023-03-22T06:31:10.439Z,8.55
2023-03-22T06:33:37.199Z,8.54
2023-03-22T06:36:04.198Z,8.53
2023-03-22T06:38:30.966Z,8.52
2023-03-22T06:40:57.588Z,8.50
2023-03-22T06:43:24.206Z,8.45
2023-03-22T06:45:50.869Z,8.42
2023-03-22T06:48:17.571Z,8.38
2023-03-22T06:50:45.106Z,8.39
2023-03-22T06:53:11.930Z,8.34
2023-03-22T06:55:38.574Z,8.31
2023-03-22T06:58:05.215Z,8.28
2023-03-22T07:00:32.530Z,8.30
2023-03-22T07:02:59.452Z,8.28
2023-03-22T07:05:26.265Z,8.25
2023-03-22T07:07:53.414Z,8.26
2023-03-22T07:10:20.411Z,8.21
2023-03-22T07:12:47.213Z,8.24
2023-03-22T07:15:13.991Z,8.19
2023-03-22T07:17:40.594Z,8.16
2023-03-22T07:20:07.863Z,8.20
2023-03-22T07:22:34.757Z,8.20
2023-03-22T07:25:01.958Z,8.18
2023-03-22T07:27:28.641Z,8.14
2023-03-22T07:29:55.298Z,8.10
2023-03-22T07:32:22.044Z,8.12
2023-03-22T07:34:48.702Z,8.08
2023-03-22T07:37:15.429Z,8.06
2023-03-22T07:39:42.151Z,8.02
2023-03-22T07:42:09.636Z,8.00
2023-03-22T07:44:36.309Z,7.96
2023-03-22T07:47:03.193Z,7.99
2023-03-22T07:49:31.252Z,7.94
2023-03-22T07:51:57.963Z,7.93
2023-03-22T07:54:33.386Z,7.92
2023-03-22T07:57:01.125Z,7.93
2023-03-22T07:59:27.803Z,7.95
2023-03-22T08:01:54.650Z,8.02
2023-03-22T08:04:22.619Z,8.05
2023-03-22T08:06:49.906Z,8.06
2023-03-22T08:09:17.478Z,8.17
2023-03-22T08:11:44.124Z,8.31
2023-03-22T08:14:10.959Z,8.42
2023-03-22T08:16:38.534Z,8.53
2023-03-22T08:19:05.620Z,8.61
2023-03-22T08:21:33.396Z,8.68
2023-03-22T08:24:00.016Z,8.77
2023-03-22T08:26:27.374Z,8.80
2023-03-22T08:28:54.028Z,8.88
2023-03-22T08:31:20.921Z,8.97
2023-03-22T08:33:48.113Z,9.03
2023-03-22T08:36:20.516Z,9.11
2023-03-22T08:38:47.203Z,9.18
2023-03-22T08:41:15.918Z,9.27
2023-03-22T08:43:43.109Z,9.35
2023-03-22T08:46:09.886Z,9.39
2023-03-22T08:48:38.046Z,9.46
2023-03-22T08:51:06.483Z,9.51
2023-03-22T08:53:33.325Z,9.54
2023-03-22T08:56:02.235Z,9.57
2023-03-22T08:58:29.050Z,9.64
2023-03-22T09:00:55.798Z,9.73
2023-03-22T09:03:24.094Z,9.73
2023-03-22T09:05:51.132Z,9.80
2023-03-22T09:08:19.477Z,9.80
2023-03-22T09:10:51.311Z,9.81
2023-03-22T09:13:18.882Z,9.85
2023-03-22T09:15:45.734Z,9.93
2023-03-22T09:18:12.689Z,9.97
2023-03-22T09:20:40.206Z,10.00
2023-03-22T09:23:08.502Z,10.05
2023-03-22T09:25:37.026Z,10.11
2023-03-22T09:28:04.354Z,10.11
2023-03-22T09:30:31.135Z,10.04
2023-03-22T09:32:58.334Z,10.01
2023-03-22T09:35:25.358Z,10.06
2023-03-22T09:37:54.235Z,10.10
2023-03-22T09:40:25.342Z,10.20
2023-03-22T09:42:55.681Z,10.36
2023-03-22T09:45:39.727Z,10.34
2023-03-22T09:48:15.003Z,10.45
2023-03-22T09:50:49.091Z,10.43
2023-03-22T09:53:17.279Z,10.50
2023-03-22T09:56:00.919Z,10.60
2023-03-22T09:58:54.681Z,10.64
2023-03-22T10:01:28.134Z,10.60
2023-03-22T10:04:18.200Z,10.61
2023-03-22T10:06:50.707Z,10.60
2023-03-22T10:09:33.415Z,10.62
2023-03-22T10:12:20.614Z,10.60
2023-03-22T10:15:00.879Z,10.64
2023-03-22T10:17:29.618Z,10.74
2023-03-22T10:20:09.408Z,10.79
2023-03-22T10:22:40.783Z,10.89
2023-03-22T10:25:16.744Z,10.87
2023-03-22T10:27:44.374Z,10.71
2023-03-22T10:30:40.389Z,10.69
2023-03-22T10:33:42.539Z,10.70
2023-03-22T10:36:14.959Z,10.72
2023-03-22T10:38:48.337Z,10.92
2023-03-22T10:41:18.882Z,11.13
2023-03-22T10:43:50.172Z,11.33
2023-03-22T10:46:21.569Z,11.58
2023-03-22T10:48:51.299Z,11.74
2023-03-22T10:51:27.828Z,11.64
2023-03-22T10:53:56.198Z,11.69
2023-03-22T10:56:22.876Z,11.57
2023-03-22T10:58:51.126Z,11.59
2023-03-22T11:01:37.077Z,11.64
2023-03-22T11:04:03.779Z,11.93
2023-03-22T11:06:37.160Z,12.18
2023-03-22T11:09:17.354Z,12.44
2023-03-22T11:11:53.572Z,12.41
2023-03-22T11:14:27.693Z,12.43
2023-03-22T11:17:01.867Z,12.50
2023-03-22T11:19:36.070Z,12.46
2023-03-22T11:22:07.045Z,12.29
2023-03-22T11:24:34.554Z,12.29
2023-03-22T11:27:18.400Z,12.21
2023-03-22T11:29:48.388Z,12.11
2023-03-22T11:32:29.020Z,12.16
2023-03-22T11:35:13.722Z,12.28
2023-03-22T11:37:53.082Z,12.61
2023-03-22T11:40:25.538Z,12.68
2023-03-22T11:42:57.227Z,12.62
2023-03-22T11:45:33.537Z,12.58
2023-03-22T11:48:11.410Z,12.47
2023-03-22T11:50:43.638Z,12.13
2023-03-22T11:53:23.069Z,11.97
2023-03-22T11:55:54.371Z,12.06
2023-03-22T11:58:43.923Z,12.16
2023-03-22T12:01:16.769Z,12.15
2023-03-22T12:03:46.782Z,12.30
2023-03-22T12:06:33.814Z,12.40
2023-03-22T12:09:26.146Z,12.40
2023-03-22T12:11:57.440Z,12.36
2023-03-22T12:14:31.001Z,12.36
2023-03-22T12:17:08.001Z,12.42
2023-03-22T12:20:00.659Z,12.46
2023-03-22T12:22:34.250Z,12.44
2023-03-22T12:25:03.370Z,12.44
2023-03-22T12:27:38.303Z,12.50
2023-03-22T12:30:13.228Z,12.52
2023-03-22T12:32:59.843Z,12.56
2023-03-22T12:35:31.990Z,12.61
2023-03-22T12:38:06.231Z,12.57
2023-03-22T12:40:37.757Z,12.55
2023-03-22T12:43:36.198Z,12.67
2023-03-22T12:46:06.444Z,12.77
2023-03-22T12:48:46.634Z,12.83
2023-03-22T12:51:15.969Z,12.87
2023-03-22T12:53:48.522Z,12.82
2023-03-22T12:56:19.047Z,12.80
2023-03-22T12:58:56.541Z,12.70
2023-03-22T13:01:26.063Z,12.60
2023-03-22T13:03:54.803Z,12.55
2023-03-22T13:06:44.736Z,12.54
2023-03-22T13:09:28.236Z,12.58
2023-03-22T13:12:16.680Z,12.73
2023-03-22T13:14:52.393Z,12.83
2023-03-22T13:17:24.955Z,13.02
2023-03-22T13:20:00.700Z,13.06
2023-03-22T13:22:51.691Z,12.99
2023-03-22T13:25:19.085Z,12.99
2023-03-22T13:27:45.735Z,12.98
2023-03-22T13:30:33.825Z,13.10
2023-03-22T13:33:04.530Z,13.06
2023-03-22T13:35:46.031Z,13.03
2023-03-22T13:38:35.565Z,13.02
2023-03-22T13:41:04.047Z,12.96
2023-03-22T13:43:39.722Z,13.00
2023-03-22T13:46:09.272Z,12.94
2023-03-22T13:48:49.598Z,12.89
2023-03-22T13:51:22.870Z,12.96
2023-03-22T13:54:16.301Z,12.91
2023-03-22T13:56:57.236Z,12.93
2023-03-22T13:59:27.582Z,12.90
2023-03-22T14:02:00.311Z,12.95
2023-03-22T14:04:39.551Z,13.01
2023-03-22T14:07:26.590Z,12.99
2023-03-22T14:09:56.786Z,12.89
2023-03-22T14:13:04.105Z,12.92
2023-03-22T14:15:35.070Z,12.91
2023-03-22T14:18:28.290Z,12.89
2023-03-22T14:21:03.666Z,12.94
